TimeCDT,TemperatureF,Dew PointF,Humidity,Sea Level PressureIn,VisibilityMPH,Wind Direction,Wind SpeedMPH,Gust SpeedMPH,PrecipitationIn,Events,Conditions,WindDirDegrees,DateUTC
12:52 AM,66.0,55.0,68,29.89,10.0,WSW,4.6,-,0.00,,Overcast,250,2014-04-22 05:52:00
1:52 AM,66.0,55.9,70,29.88,10.0,WSW,6.9,-,N/A,,Overcast,250,2014-04-22 06:52:00
2:52 AM,64.9,57.0,75,29.86,10.0,WSW,4.6,-,N/A,,Overcast,240,2014-04-22 07:52:00
3:52 AM,64.9,57.9,78,29.86,9.0,West,10.4,-,N/A,,Overcast,270,2014-04-22 08:52:00
4:52 AM,63.0,59.0,87,29.86,10.0,West,5.8,-,0.00,,Overcast,260,2014-04-22 09:52:00
5:35 AM,62.1,59.0,90,29.87,10.0,West,6.9,-,N/A,,Overcast,260,2014-04-22 10:35:00
5:52 AM,63.0,59.0,87,29.86,10.0,West,6.9,-,N/A,,Overcast,260,2014-04-22 10:52:00
6:07 AM,62.1,59.0,90,29.87,10.0,West,8.1,-,N/A,,Overcast,260,2014-04-22 11:07:00
6:52 AM,63.0,59.0,87,29.87,9.0,West,9.2,-,N/A,,Overcast,280,2014-04-22 11:52:00
7:38 AM,63.0,60.1,90,29.89,8.0,West,6.9,-,N/A,,Overcast,280,2014-04-22 12:38:00
7:52 AM,64.0,60.1,87,29.88,9.0,West,6.9,-,N/A,,Overcast,260,2014-04-22 12:52:00
8:13 AM,64.0,60.1,87,29.89,8.0,WNW,9.2,-,N/A,,Overcast,290,2014-04-22 13:13:00
8:40 AM,64.9,61.0,87,29.89,8.0,WNW,8.1,-,N/A,,Overcast,300,2014-04-22 13:40:00
8:52 AM,66.0,61.0,84,29.88,8.0,NW,9.2,-,N/A,,Overcast,320,2014-04-22 13:52:00
9:52 AM,68.0,61.0,78,29.89,7.0,NNW,9.2,-,N/A,,Overcast,330,2014-04-22 14:52:00
10:52 AM,69.1,60.1,73,29.90,10.0,NNW,13.8,-,N/A,,Mostly Cloudy,340,2014-04-22 15:52:00
11:20 AM,71.1,60.1,68,29.91,10.0,NNW,11.5,-,N/A,,Mostly Cloudy,330,2014-04-22 16:20:00
11:52 AM,70.0,60.1,71,29.89,10.0,NNW,13.8,-,N/A,,Mostly Cloudy,340,2014-04-22 16:52:00
12:52 PM,73.0,57.9,59,29.88,10.0,NW,10.4,18.4,N/A,,Partly Cloudy,320,2014-04-22 17:52:00
1:52 PM,73.9,55.9,53,29.87,10.0,NNW,15.0,24.2,N/A,,Mostly Cloudy,330,2014-04-22 18:52:00
2:52 PM,72.0,51.1,48,29.87,10.0,NW,12.7,-,N/A,,Scattered Clouds,320,2014-04-22 19:52:00
3:52 PM,73.9,46.0,37,29.86,10.0,WNW,16.1,-,N/A,,Clear,300,2014-04-22 20:52:00
4:52 PM,73.0,44.1,35,29.87,10.0,NNW,13.8,20.7,N/A,,Clear,340,2014-04-22 21:52:00
5:52 PM,71.1,43.0,36,29.87,10.0,North,11.5,-,N/A,,Clear,360,2014-04-22 22:52:00
6:21 PM,69.1,45.0,42,29.89,10.0,North,10.4,-,N/A,,Partly Cloudy,360,2014-04-22 23:21:00
6:52 PM,66.9,42.1,40,29.89,10.0,North,11.5,-,N/A,,Clear,350,2014-04-22 23:52:00
7:52 PM,60.1,43.0,53,29.91,10.0,North,5.8,-,N/A,,Clear,350,2014-04-23 00:52:00
8:52 PM,57.9,41.0,53,29.93,10.0,North,10.4,-,N/A,,Clear,10,2014-04-23 01:52:00
9:52 PM,52.0,41.0,66,29.96,10.0,North,5.8,-,N/A,,Clear,360,2014-04-23 02:52:00
10:52 PM,55.9,39.0,53,29.96,10.0,NNW,4.6,-,N/A,,Clear,340,2014-04-23 03:52:00
11:52 PM,52.0,39.0,61,29.96,10.0,NW,3.5,-,N/A,,Clear,310,2014-04-23 04:52:00